This is the latest recevied weather packets stored in our database for station/object GW1476. If no packets are shown the sender has not sent any weather packets the latest 10 day(s).
| Time | Temp. | Humidity | Pressure | Rain* | Wind** | Luminosity | Snow |
|---|---|---|---|---|---|---|---|
| 1777074146 | 25.56° C | 56% | 1010.1 hPa | 0 mm | - | - | - |
| 1777072697 | 28.89° C | 50% | 1010.1 hPa | 0 mm | - | - | - |
| 1777071621 | 30° C | 42% | 1009.8 hPa | 0 mm | - | - | - |
| 1777070175 | 28.89° C | 44% | 1009.8 hPa | 0 mm | - | - | - |
| 1777068397 | 30.56° C | 39% | 1009.8 hPa | 0 mm | - | - | - |
| 1777066228 | 30.56° C | 41% | 1010.1 hPa | 0 mm | - | - | - |
| 1777063721 | 33.33° C | 37% | 1010.4 hPa | 0 mm | - | - | - |
| 1777062654 | 33.33° C | 38% | 1010.4 hPa | 0 mm | - | - | - |
| 1777062288 | 33.33° C | 38% | 1010.4 hPa | 0 mm | - | - | - |
| 1777059394 | 29.44° C | 42% | 1011.5 hPa | 0 mm | - | - | - |
| 1777032037 | 11.67° C | 99% | 1015.9 hPa | 0 mm | - | - | - |
| 1777031656 | 11.11° C | 99% | 1015.9 hPa | 0 mm | - | - | - |
| 1777030604 | 10° C | 99% | 1015.9 hPa | 0 mm | - | - | - |
| 1777030236 | 9.44° C | 99% | 1015.9 hPa | 0 mm | - | - | - |
| 1777029883 | 10° C | 99% | 1015.9 hPa | 0 mm | - | - | - |
| 1777021929 | 9.44° C | 99% | 1015.5 hPa | 0 mm | - | - | - |
| 1777019410 | 9.44° C | 99% | 1015.5 hPa | 0 mm | - | - | - |
| 1777019089 | 10° C | 99% | 1015.5 hPa | 0 mm | - | - | - |
| 1777016909 | 10° C | 99% | 1015.5 hPa | 0 mm | - | - | - |
| 1777014763 | 10.56° C | 99% | 1015.2 hPa | 0 mm | - | - | - |
| 1777013315 | 10° C | 99% | 1015.2 hPa | 0 mm | - | - | - |
| 1777012599 | 10.56° C | 99% | 1015.2 hPa | 0 mm | - | - | - |
| 1777010806 | 11.11° C | 99% | 1015.2 hPa | 0 mm | - | - | - |
| 1777008615 | 11.67° C | 99% | 1015.2 hPa | 0 mm | - | - | - |
| 1777007898 | 11.67° C | 99% | 1014.9 hPa | 0 mm | - | - | - |
* Rain since midnight (hover to see other rain measurements)
** Current wind speed in m/s (hover to see current wind gust speed)